Time;durP1;ratioP1;P1;durP2;ratioP2;P2;SDS_P1;SDS_P2;PMS_P1;PMS_P2;Temp;Humidity;BMP_temperature;BMP_pressure;BME280_temperature;BME280_humidity;BME280_pressure;Samples;Min_cycle;Max_cycle;Signal;HPM_P1;HPM_P2
2022/03/12 00:03:54;;;;;;;5.55;5.05;;;;;;;2.11;31.83;100985.75;10406818;28;20049;-72
2022/03/12 00:08:58;;;;;;;10.00;5.35;;;;;;;2.20;31.69;100982.44;10424061;28;20065;-71
2022/03/12 00:14:02;;;;;;;7.05;5.65;;;;;;;2.00;32.25;100977.78;10405589;28;20045;-72
2022/03/12 00:19:05;;;;;;;6.05;5.45;;;;;;;2.16;31.53;100983.22;10405636;28;20057;-71
2022/03/12 00:24:15;;;;;;;6.68;5.25;;;;;;;2.08;31.72;100977.94;10423302;28;20171;-73
2022/03/12 00:29:19;;;;;;;5.65;5.05;;;;;;;2.05;32.02;100964.91;10406228;28;20247;-71
2022/03/12 00:34:21;;;;;;;6.53;5.88;;;;;;;1.97;32.84;100972.53;10423440;28;20414;-74
2022/03/12 00:39:22;;;;;;;7.50;4.95;;;;;;;1.98;32.28;100969.09;10422893;28;20450;-72
2022/03/12 00:44:24;;;;;;;6.75;5.78;;;;;;;1.71;32.77;100976.34;10423365;28;20569;-72
2022/03/12 00:49:26;;;;;;;6.90;5.40;;;;;;;1.81;32.13;100964.44;10423187;28;20100;-71
2022/03/12 00:54:27;;;;;;;6.85;4.65;;;;;;;1.87;32.44;100949.03;10423391;28;20041;-73
2022/03/12 00:59:29;;;;;;;6.38;5.65;;;;;;;1.90;32.18;100957.69;10423185;28;20053;-72
2022/03/12 01:04:30;;;;;;;7.78;5.60;;;;;;;1.93;32.27;100951.72;10423642;28;20405;-71
2022/03/12 01:09:32;;;;;;;6.50;5.75;;;;;;;1.63;33.35;100952.00;10405371;28;20075;-71
2022/03/12 01:14:34;;;;;;;7.65;4.78;;;;;;;1.85;31.75;100956.75;10405454;28;20042;-71
2022/03/12 01:19:35;;;;;;;7.70;4.93;;;;;;;1.58;32.19;100951.91;10405633;28;20045;-71
2022/03/12 01:24:37;;;;;;;4.47;3.80;;;;;;;1.86;32.19;100942.97;10405298;28;20549;-72
2022/03/12 01:29:38;;;;;;;4.88;4.03;;;;;;;1.67;32.24;100952.09;10422243;28;20054;-71
2022/03/12 01:34:40;;;;;;;5.05;3.88;;;;;;;1.68;31.66;100947.78;10421030;28;20091;-71
2022/03/12 01:39:41;;;;;;;5.80;4.85;;;;;;;1.57;31.78;100939.81;10421800;28;20049;-72
2022/03/12 01:44:46;;;;;;;6.20;4.85;;;;;;;1.63;32.20;100934.72;10421815;28;20036;-72
2022/03/12 01:49:51;;;;;;;5.50;4.28;;;;;;;1.79;31.23;100935.91;10421227;28;20495;-71
2022/03/12 01:54:54;;;;;;;5.82;4.03;;;;;;;1.58;31.82;100938.09;10423524;28;20045;-71
2022/03/12 01:59:57;;;;;;;5.90;4.03;;;;;;;1.17;32.41;100931.25;10420467;28;20514;-71
2022/03/12 02:05:03;;;;;;;4.05;3.60;;;;;;;1.69;30.93;100921.91;10421752;28;20051;-72
2022/03/12 02:10:06;;;;;;;3.75;3.30;;;;;;;1.49;31.87;100918.94;10420057;28;20045;-71
2022/03/12 02:15:08;;;;;;;7.97;3.80;;;;;;;1.37;32.03;100928.19;10420178;28;20053;-72
2022/03/12 02:20:10;;;;;;;6.28;4.45;;;;;;;1.59;31.68;100919.09;10420393;28;20414;-72
2022/03/12 02:25:13;;;;;;;3.70;3.30;;;;;;;1.63;31.08;100910.53;10402673;28;20091;-72
2022/03/12 02:30:15;;;;;;;4.40;3.50;;;;;;;1.37;31.36;100912.63;10420351;28;20414;-71
2022/03/12 02:35:24;;;;;;;4.75;3.60;;;;;;;1.65;30.34;100906.28;10402715;28;20049;-72
2022/03/12 02:40:26;;;;;;;5.10;3.97;;;;;;;1.49;31.01;100912.88;10420722;28;20053;-73
2022/03/12 02:45:29;;;;;;;5.30;3.58;;;;;;;1.52;30.93;100913.81;10385926;28;20065;-72
2022/03/12 02:50:32;;;;;;;3.90;3.50;;;;;;;1.49;30.89;100907.69;10401065;28;20410;-72
2022/03/12 02:55:34;;;;;;;3.63;3.30;;;;;;;1.60;31.30;100910.50;10418548;28;20045;-72
2022/03/12 03:00:37;;;;;;;3.83;3.15;;;;;;;1.59;30.36;100908.75;10418171;28;20558;-72
2022/03/12 03:05:47;;;;;;;3.70;3.13;;;;;;;1.59;30.72;100907.00;10418368;28;20042;-72
2022/03/12 03:10:51;;;;;;;4.45;2.58;;;;;;;1.72;30.07;100897.75;10418279;28;20045;-72
2022/03/12 03:16:00;;;;;;;4.38;3.05;;;;;;;1.52;30.49;100890.50;10400662;28;20388;-72
2022/03/12 03:21:04;;;;;;;5.03;3.72;;;;;;;1.68;29.90;100886.47;10418419;28;20061;-72
2022/03/12 03:26:06;;;;;;;4.40;3.03;;;;;;;1.69;30.40;100877.84;10399225;28;20128;-71
2022/03/12 03:31:08;;;;;;;4.00;3.35;;;;;;;1.75;29.55;100871.88;10398984;28;20124;-72
2022/03/12 03:36:10;;;;;;;3.47;2.60;;;;;;;1.52;30.21;100869.78;10417141;28;20046;-73
2022/03/12 03:41:12;;;;;;;7.57;3.30;;;;;;;1.75;28.82;100865.00;10416607;28;20050;-72
2022/03/12 03:46:18;;;;;;;4.18;2.80;;;;;;;1.77;28.87;100867.59;10417440;28;20072;-72
2022/03/12 03:51:21;;;;;;;3.37;2.60;;;;;;;1.81;28.37;100863.34;10417157;28;20042;-72
2022/03/12 03:56:23;;;;;;;4.75;2.38;;;;;;;1.84;28.01;100863.41;10416633;28;20296;-73
2022/03/12 04:01:25;;;;;;;3.78;2.42;;;;;;;1.91;27.52;100873.91;10415983;28;20053;-72
2022/03/12 04:06:27;;;;;;;3.38;2.65;;;;;;;1.85;28.00;100871.19;10416871;28;20128;-72
2022/03/12 04:11:29;;;;;;;5.47;2.42;;;;;;;1.88;27.00;100873.84;10416539;28;20073;-72
2022/03/12 04:16:31;;;;;;;7.55;2.65;;;;;;;1.85;26.84;100868.59;10398417;28;20084;-72
2022/03/12 04:21:33;;;;;;;3.42;2.10;;;;;;;1.82;27.30;100876.34;10399453;28;20103;-73
2022/03/12 04:26:35;;;;;;;4.05;2.30;;;;;;;1.75;27.42;100879.66;10404786;28;20060;-73
2022/03/12 04:31:36;;;;;;;3.50;2.60;;;;;;;1.67;27.39;100881.25;10423100;28;20056;-74
2022/03/12 04:36:41;;;;;;;7.78;2.63;;;;;;;1.69;26.95;100882.16;10423121;28;20041;-73
2022/03/12 04:41:43;;;;;;;3.50;2.30;;;;;;;1.64;27.52;100878.59;10423774;28;20132;-73
2022/03/12 04:46:45;;;;;;;4.47;2.92;;;;;;;1.54;27.54;100879.28;10404659;28;20049;-72
2022/03/12 04:51:46;;;;;;;4.05;2.90;;;;;;;1.53;28.16;100896.56;10405667;28;20111;-72
2022/03/12 04:56:50;;;;;;;3.50;2.78;;;;;;;1.34;28.72;100902.25;10422411;28;20049;-72
2022/03/12 05:01:52;;;;;;;4.45;2.35;;;;;;;1.35;28.35;100898.78;10404469;28;20103;-72
2022/03/12 05:06:54;;;;;;;3.90;3.17;;;;;;;1.09;28.50;100895.69;10421573;28;20092;-73
2022/03/12 05:11:57;;;;;;;3.40;2.65;;;;;;;1.00;28.69;100902.41;10421159;28;20041;-72
2022/03/12 05:16:59;;;;;;;8.50;3.33;;;;;;;1.07;28.58;100895.66;10403176;28;20096;-73
2022/03/12 05:22:03;;;;;;;3.58;3.28;;;;;;;0.91;29.09;100893.59;10421052;28;20041;-73
2022/03/12 05:27:06;;;;;;;3.53;3.00;;;;;;;0.95;29.05;100905.75;10421395;28;20057;-74
2022/03/12 05:32:11;;;;;;;3.85;2.80;;;;;;;1.11;28.51;100905.25;10420990;28;20092;-73
2022/03/12 05:37:13;;;;;;;8.82;2.88;;;;;;;1.13;29.56;100915.63;10420083;28;20046;-73
2022/03/12 05:42:14;;;;;;;4.95;3.20;;;;;;;0.83;29.49;100913.25;10420484;28;20561;-73
2022/03/12 05:47:17;;;;;;;4.47;2.92;;;;;;;1.16;29.07;100919.16;10420050;28;20418;-74
2022/03/12 05:52:19;;;;;;;3.90;3.17;;;;;;;0.98;29.13;100909.28;10420305;28;20410;-71
2022/03/12 05:57:21;;;;;;;4.18;2.97;;;;;;;0.83;30.00;100927.06;10419995;28;20049;-72
2022/03/12 06:02:22;;;;;;;3.72;2.95;;;;;;;1.13;29.59;100923.38;10419675;28;20034;-73
2022/03/12 06:07:24;;;;;;;3.83;3.03;;;;;;;1.08;29.59;100920.72;10420556;28;20052;-73
2022/03/12 06:12:26;;;;;;;3.88;3.20;;;;;;;0.95;30.45;100929.06;10419994;28;20042;-72
2022/03/12 06:17:29;;;;;;;14.20;3.22;;;;;;;2.39;29.00;100937.81;10401029;28;20503;-72
2022/03/12 06:22:30;;;;;;;3.70;3.35;;;;;;;2.94;28.19;100936.03;10419096;28;20049;-71
2022/03/12 06:27:32;;;;;;;5.03;2.95;;;;;;;4.11;26.52;100934.72;10419277;28;20091;-71
2022/03/12 06:32:38;;;;;;;5.28;3.63;;;;;;;3.69;27.06;100931.72;10417695;28;20120;-71
2022/03/12 06:37:41;;;;;;;4.60;3.40;;;;;;;3.28;27.76;100928.66;10399832;28;20049;-71
2022/03/12 06:42:45;;;;;;;3.25;2.95;;;;;;;2.83;28.30;100936.72;10401674;28;20033;-71
2022/03/12 06:47:47;;;;;;;4.13;3.50;;;;;;;2.86;27.88;100940.22;10401206;28;20037;-73
2022/03/12 06:52:50;;;;;;;3.75;3.35;;;;;;;3.21;27.77;100943.28;10417713;28;20045;-73
2022/03/12 06:57:53;;;;;;;4.80;3.05;;;;;;;3.58;26.71;100948.06;10417965;28;20557;-72
2022/03/12 07:02:56;;;;;;;5.40;3.15;;;;;;;3.91;27.15;100961.44;10417734;28;20102;-72
2022/03/12 07:07:58;;;;;;;4.63;3.10;;;;;;;3.83;26.72;100967.41;10417604;28;20103;-71
2022/03/12 07:12:59;;;;;;;3.78;3.20;;;;;;;3.80;26.87;100966.50;10417147;28;20099;-73
2022/03/12 07:18:01;;;;;;;3.97;3.25;;;;;;;3.67;26.36;100977.63;10416386;28;20446;-74
2022/03/12 07:23:05;;;;;;;5.15;4.00;;;;;;;3.82;26.84;100976.94;10416515;28;20045;-73
2022/03/12 07:28:07;;;;;;;3.92;3.53;;;;;;;3.73;27.37;100979.44;10417400;28;20049;-73
2022/03/12 07:33:09;;;;;;;5.90;3.53;;;;;;;3.51;27.58;100973.13;10417261;28;20543;-73
2022/03/12 07:38:10;;;;;;;4.18;3.25;;;;;;;3.63;27.52;100975.88;10398977;28;20080;-74
2022/03/12 07:43:12;;;;;;;4.28;3.58;;;;;;;3.79;27.38;100984.69;10416087;28;20052;-73
2022/03/12 07:48:14;;;;;;;4.78;3.47;;;;;;;3.62;27.57;100975.84;10398741;28;20099;-74
2022/03/12 07:53:36;;;;;;;4.03;3.47;;;;;;;3.87;27.15;100982.19;10416547;28;20442;-74
2022/03/12 07:58:39;;;;;;;3.38;2.90;;;;;;;4.00;28.00;100971.94;10419657;28;20053;-74
2022/03/12 08:03:41;;;;;;;5.38;3.58;;;;;;;4.15;27.71;100976.41;10423772;28;20052;-72
2022/03/12 08:08:43;;;;;;;4.38;3.67;;;;;;;4.33;26.83;100970.47;10423976;28;20100;-73
2022/03/12 08:13:44;;;;;;;9.32;3.60;;;;;;;4.30;27.34;100968.75;10423618;28;20103;-73
2022/03/12 08:18:48;;;;;;;5.15;4.22;;;;;;;4.48;26.82;100974.97;10423463;28;20392;-73
2022/03/12 08:23:50;;;;;;;4.75;3.38;;;;;;;4.60;26.41;100969.84;10423151;28;20042;-73
2022/03/12 08:28:52;;;;;;;4.38;3.17;;;;;;;4.70;27.08;100978.59;10423650;28;20046;-74
2022/03/12 08:33:55;;;;;;;6.15;3.25;;;;;;;4.67;26.48;100976.84;10422766;28;20044;-73
2022/03/12 08:38:57;;;;;;;3.28;2.97;;;;;;;5.04;24.97;100959.69;10423997;28;20099;-72
2022/03/12 08:43:59;;;;;;;6.10;3.28;;;;;;;4.98;24.69;100958.81;10425082;28;20454;-73
2022/03/12 08:49:01;;;;;;;4.28;3.50;;;;;;;5.42;26.25;100958.16;10423822;28;20525;-74
2022/03/12 08:54:02;;;;;;;4.85;3.60;;;;;;;5.78;24.69;100944.34;10423745;28;20046;-72
2022/03/12 08:59:04;;;;;;;3.70;3.13;;;;;;;5.55;25.02;100957.34;10423613;28;20045;-74
2022/03/12 09:04:06;;;;;;;8.07;3.33;;;;;;;6.03;23.59;100942.72;10423647;28;20037;-73
2022/03/12 09:09:09;;;;;;;4.80;3.60;;;;;;;6.24;24.17;100955.78;10422728;28;20072;-74
2022/03/12 09:14:11;;;;;;;4.13;3.72;;;;;;;6.35;23.52;100944.47;10422244;28;20045;-74
2022/03/12 09:19:13;;;;;;;4.32;3.92;;;;;;;6.43;23.46;100953.19;10421500;28;20049;-73
2022/03/12 09:24:15;;;;;;;5.60;3.00;;;;;;;6.53;23.40;100954.91;10422071;28;20045;-72
2022/03/12 09:29:17;;;;;;;3.33;2.60;;;;;;;6.48;23.30;100946.22;10422597;28;20042;-74
2022/03/12 09:34:18;;;;;;;4.85;3.08;;;;;;;6.76;23.06;100950.50;10421525;28;20041;-74
2022/03/12 09:39:20;;;;;;;3.92;3.30;;;;;;;6.82;23.06;100940.06;10424325;28;20399;-72
2022/03/12 09:44:22;;;;;;;4.90;3.60;;;;;;;7.26;22.51;100936.47;10423391;28;20037;-73
2022/03/12 09:49:23;;;;;;;4.88;3.60;;;;;;;7.26;21.84;100922.50;10422466;28;20060;-72
2022/03/12 09:54:29;;;;;;;2.75;2.40;;;;;;;7.37;22.09;100933.78;10424418;28;20052;-72
2022/03/12 09:59:31;;;;;;;4.13;2.97;;;;;;;7.27;22.30;100930.34;10389499;28;20052;-73
2022/03/12 10:04:32;;;;;;;4.00;3.30;;;;;;;7.19;21.84;100932.13;10422359;28;20045;-72
2022/03/12 10:09:34;;;;;;;3.90;3.30;;;;;;;7.67;22.23;100931.91;10415150;28;20041;-73
2022/03/12 10:14:35;;;;;;;3.97;3.10;;;;;;;7.78;21.63;100915.25;10422733;28;20407;-73
2022/03/12 10:19:37;;;;;;;4.63;3.70;;;;;;;8.00;21.44;100908.13;10402778;28;20069;-72
2022/03/12 10:24:40;;;;;;;3.80;3.10;;;;;;;8.58;22.15;100902.41;10421493;28;20041;-74
2022/03/12 10:29:41;;;;;;;9.55;3.10;;;;;;;8.33;21.20;100903.50;10420266;28;20384;-72
2022/03/12 10:34:43;;;;;;;3.28;2.97;;;;;;;8.78;21.35;100894.34;10419668;28;20112;-72
2022/03/12 10:39:45;;;;;;;4.80;3.35;;;;;;;9.23;21.09;100906.97;10419449;28;20061;-72
2022/03/12 10:44:47;;;;;;;6.28;3.00;;;;;;;8.89;20.75;100901.22;10418773;28;20034;-71
2022/03/12 10:50:00;;;;;;;4.25;3.47;;;;;;;9.07;20.20;100904.53;10418446;28;20461;-71
2022/03/12 10:55:19;;;;;;;4.38;3.15;;;;;;;9.24;20.47;100898.19;10418273;28;20049;-71
2022/03/12 11:00:20;;;;;;;4.05;2.97;;;;;;;9.70;21.31;100902.84;10418349;28;20053;-71
2022/03/12 11:05:29;;;;;;;4.82;3.05;;;;;;;9.72;20.80;100904.53;10418218;28;20040;-72
2022/03/12 11:10:33;;;;;;;4.13;3.08;;;;;;;9.34;21.62;100899.81;10416267;28;20045;-72
2022/03/12 11:15:35;;;;;;;3.83;3.47;;;;;;;9.14;21.35;100896.59;10401772;28;20049;-71
2022/03/12 11:20:37;;;;;;;6.43;3.92;;;;;;;9.91;21.24;100899.00;10401021;28;20073;-71
2022/03/12 11:25:59;;;;;;;6.45;3.80;;;;;;;9.97;20.69;100898.94;10418014;28;20048;-73
2022/03/12 11:31:06;;;;;;;4.28;3.78;;;;;;;9.81;21.31;100895.66;10402643;28;20037;-72
2022/03/12 11:36:09;;;;;;;6.22;4.60;;;;;;;9.75;21.11;100895.78;10426506;28;20045;-72
2022/03/12 11:41:24;;;;;;;7.05;4.35;;;;;;;9.24;21.39;100885.06;10426175;28;20045;-72
2022/03/12 11:46:25;;;;;;;4.50;4.10;;;;;;;9.52;21.54;100882.97;10392338;28;20061;-72
2022/03/12 11:51:28;;;;;;;5.63;4.10;;;;;;;9.62;21.41;100879.31;10425980;28;20034;-72
2022/03/12 11:56:34;;;;;;;4.28;3.88;;;;;;;9.57;21.41;100875.91;10408815;28;20041;-73
2022/03/12 12:01:37;;;;;;;4.65;3.72;;;;;;;10.00;21.51;100883.13;10408676;28;20057;-72
2022/03/12 12:06:39;;;;;;;6.72;4.15;;;;;;;10.10;21.12;100882.09;10424999;28;20051;-72
2022/03/12 12:11:41;;;;;;;5.28;3.78;;;;;;;10.18;21.34;100863.56;10424730;28;20046;-73
2022/03/12 12:16:45;;;;;;;5.35;4.10;;;;;;;9.58;21.94;100869.75;10425577;28;20037;-73
2022/03/12 12:21:47;;;;;;;5.05;4.40;;;;;;;9.67;21.91;100855.63;10425084;28;20087;-73
2022/03/12 12:27:09;;;;;;;4.72;3.90;;;;;;;9.51;22.46;100858.47;10422607;28;20099;-72
2022/03/12 12:32:19;;;;;;;5.00;3.92;;;;;;;9.44;22.00;100848.09;10423683;28;20099;-72
2022/03/12 12:37:23;;;;;;;3.88;3.40;;;;;;;9.46;22.14;100843.69;10421668;28;20087;-73
2022/03/12 12:42:39;;;;;;;4.40;3.42;;;;;;;9.44;21.93;100835.84;10420882;28;20051;-72
2022/03/12 12:47:41;;;;;;;7.87;3.50;;;;;;;9.35;21.28;100833.34;10424989;28;20116;-72
2022/03/12 12:53:16;;;;;;;3.60;3.00;;;;;;;9.22;21.46;100831.78;10425875;28;20407;-73
2022/03/12 12:58:37;;;;;;;4.07;3.65;;;;;;;9.56;22.31;100835.66;10405663;28;20065;-73
2022/03/12 13:03:50;;;;;;;4.78;3.55;;;;;;;9.44;21.57;100832.34;10424479;28;20150;-73
2022/03/12 13:08:52;;;;;;;5.18;3.90;;;;;;;9.27;21.69;100825.56;10406280;28;20049;-73
2022/03/12 13:14:02;;;;;;;4.38;3.60;;;;;;;9.09;21.37;100824.06;10423410;28;20041;-72
2022/03/12 13:19:05;;;;;;;7.15;5.10;;;;;;;9.10;21.34;100828.41;10405314;28;20115;-72
2022/03/12 13:24:10;;;;;;;5.10;3.92;;;;;;;8.92;20.75;100819.94;10406594;28;20045;-72
2022/03/12 13:29:19;;;;;;;4.30;3.70;;;;;;;9.00;21.54;100808.44;10423810;28;20049;-72
2022/03/12 13:34:22;;;;;;;4.30;3.90;;;;;;;8.98;21.57;100802.34;10422631;28;20042;-73
2022/03/12 13:39:24;;;;;;;4.85;3.35;;;;;;;8.89;21.59;100798.97;10422698;28;20096;-73
2022/03/12 13:44:25;;;;;;;4.75;3.40;;;;;;;9.18;20.63;100793.38;10405979;28;20045;-73
2022/03/12 13:49:29;;;;;;;6.68;3.83;;;;;;;9.04;21.57;100778.69;10423927;28;20037;-73
2022/03/12 13:54:30;;;;;;;5.10;3.40;;;;;;;8.94;21.06;100786.66;10422109;28;20462;-73
2022/03/12 13:59:34;;;;;;;5.68;3.78;;;;;;;8.99;21.06;100791.00;10425401;28;20042;-72
2022/03/12 14:04:36;;;;;;;5.22;3.90;;;;;;;9.07;21.50;100781.28;10426563;28;20398;-72
2022/03/12 14:09:51;;;;;;;4.88;3.55;;;;;;;9.15;20.78;100780.28;10410078;28;20056;-73
2022/03/12 14:15:03;;;;;;;4.22;3.67;;;;;;;9.20;20.42;100778.44;10427905;28;20513;-73
2022/03/12 14:20:07;;;;;;;4.68;4.03;;;;;;;9.17;21.26;100770.66;10426975;28;20045;-72
2022/03/12 14:25:10;;;;;;;4.60;3.50;;;;;;;9.28;21.74;100772.22;10394458;28;20081;-72
2022/03/12 14:30:12;;;;;;;3.95;3.65;;;;;;;9.12;21.52;100769.81;10425517;28;20046;-73
2022/03/12 14:35:13;;;;;;;4.63;3.75;;;;;;;9.10;21.53;100762.84;10403924;28;20046;-72
2022/03/12 14:40:16;;;;;;;4.10;3.70;;;;;;;8.88;21.66;100756.16;10421347;28;20050;-74
2022/03/12 14:45:19;;;;;;;4.55;3.80;;;;;;;8.81;21.58;100758.03;10421228;28;20050;-73
2022/03/12 14:50:21;;;;;;;5.40;3.60;;;;;;;8.89;21.61;100744.78;10421257;28;20050;-72
2022/03/12 14:55:25;;;;;;;6.80;3.60;;;;;;;8.99;21.45;100749.03;10419234;28;20041;-73
2022/03/12 15:00:27;;;;;;;4.97;3.35;;;;;;;9.02;21.48;100738.47;10420132;28;20115;-73
2022/03/12 15:05:31;;;;;;;4.68;3.67;;;;;;;9.01;20.94;100747.25;10420419;28;20104;-73
2022/03/12 15:10:35;;;;;;;6.78;4.20;;;;;;;9.15;21.12;100725.19;10404767;28;20497;-73
2022/03/12 15:15:38;;;;;;;5.90;4.03;;;;;;;9.02;21.10;100729.75;10421187;28;20048;-72
2022/03/12 15:20:47;;;;;;;5.20;3.55;;;;;;;8.96;20.85;100733.34;10403438;28;20392;-73
2022/03/12 15:25:55;;;;;;;4.25;3.85;;;;;;;8.81;21.48;100731.81;10421030;28;20104;-73
2022/03/12 15:31:00;;;;;;;6.70;4.00;;;;;;;9.04;21.83;100738.47;10404238;28;20045;-73
2022/03/12 15:36:15;;;;;;;4.28;3.58;;;;;;;8.86;21.29;100747.47;10421023;28;20042;-73
2022/03/12 15:41:20;;;;;;;5.43;4.15;;;;;;;9.08;20.81;100748.91;10424660;28;20046;-74
2022/03/12 15:46:23;;;;;;;5.90;4.00;;;;;;;8.94;21.30;100732.50;10421589;28;20072;-74
2022/03/12 15:51:25;;;;;;;4.15;3.53;;;;;;;8.92;21.59;100743.88;10420781;28;20116;-72
2022/03/12 15:56:29;;;;;;;4.82;3.30;;;;;;;8.90;21.27;100738.69;10419403;28;20477;-72
2022/03/12 16:01:30;;;;;;;3.92;3.53;;;;;;;8.50;21.47;100746.16;10417810;28;20049;-73
2022/03/12 16:06:34;;;;;;;4.18;3.42;;;;;;;8.66;21.33;100739.84;10419813;28;20049;-72
2022/03/12 16:11:36;;;;;;;4.78;3.33;;;;;;;8.73;21.14;100738.03;10417448;28;20061;-73
2022/03/12 16:16:39;;;;;;;4.65;3.50;;;;;;;8.51;21.58;100740.06;10417471;28;20053;-72
2022/03/12 16:21:40;;;;;;;4.60;3.25;;;;;;;8.37;21.18;100734.09;10425805;28;20045;-73
2022/03/12 16:26:42;;;;;;;4.28;3.42;;;;;;;8.30;21.81;100730.66;10424466;28;20414;-73
2022/03/12 16:31:44;;;;;;;5.50;3.97;;;;;;;8.02;22.02;100724.84;10443947;23;20049;-76
2022/03/12 16:36:51;;;;;;;4.10;3.67;;;;;;;8.28;21.69;100730.69;10419792;28;20034;-74
2022/03/12 16:41:52;;;;;;;3.78;3.47;;;;;;;8.15;22.10;100736.06;10441647;28;20045;-74
2022/03/12 16:46:54;;;;;;;3.97;3.55;;;;;;;8.13;21.84;100728.22;10437112;28;20053;-74
2022/03/12 16:51:59;;;;;;;6.28;3.95;;;;;;;7.98;22.13;100721.38;10437198;28;20041;-74
2022/03/12 16:57:01;;;;;;;6.15;3.30;;;;;;;7.73;23.22;100723.38;10437044;28;20042;-74
2022/03/12 17:02:04;;;;;;;4.85;3.25;;;;;;;7.66;22.49;100716.47;10429055;28;20068;-75
2022/03/12 17:07:07;;;;;;;6.72;4.53;;;;;;;7.28;23.83;100719.38;10469974;28;20127;-75
2022/03/12 17:12:17;;;;;;;4.53;3.30;;;;;;;7.38;23.17;100720.19;10438361;28;20045;-76
2022/03/12 17:17:23;;;;;;;5.00;3.53;;;;;;;7.03;23.11;100719.53;10446498;28;20079;-74
2022/03/12 17:22:25;;;;;;;6.43;4.40;;;;;;;7.03;23.62;100723.91;10461103;28;20110;-75
2022/03/12 17:27:27;;;;;;;4.25;3.50;;;;;;;7.01;23.34;100725.69;10479097;28;20279;-75
2022/03/12 17:32:30;;;;;;;5.90;5.38;;;;;;;6.96;23.48;100720.47;10460882;28;20068;-74
2022/03/12 17:37:32;;;;;;;5.43;4.65;;;;;;;6.87;23.65;100722.28;10423037;28;20093;-74
2022/03/12 17:42:35;;;;;;;7.68;6.95;;;;;;;6.43;24.04;100718.13;10419873;28;20046;-74
2022/03/12 17:47:40;;;;;;;7.90;7.13;;;;;;;6.01;24.58;100713.03;10436922;28;20067;-74
2022/03/12 17:52:42;;;;;;;7.97;6.60;;;;;;;6.22;24.59;100712.09;10435246;28;20099;-75
2022/03/12 17:57:46;;;;;;;6.15;5.13;;;;;;;6.22;24.66;100721.69;10431559;28;20049;-76
2022/03/12 18:02:49;;;;;;;8.18;5.90;;;;;;;6.06;25.33;100720.84;10433438;28;20132;-76
2022/03/12 18:07:51;;;;;;;6.22;5.57;;;;;;;6.04;25.51;100717.38;10418267;28;20047;-75
2022/03/12 18:12:54;;;;;;;5.60;4.95;;;;;;;5.97;25.70;100718.25;10437223;28;20045;-75
2022/03/12 18:17:56;;;;;;;6.53;5.43;;;;;;;5.82;25.64;100712.16;10439926;28;20056;-75
2022/03/12 18:22:59;;;;;;;7.22;6.53;;;;;;;5.89;25.86;100717.34;10478837;28;20049;-76
2022/03/12 18:28:01;;;;;;;8.15;7.32;;;;;;;5.39;26.55;100718.28;10478988;28;20057;-75
2022/03/12 18:33:07;;;;;;;10.90;7.05;;;;;;;5.15;27.06;100716.53;10448322;28;20046;-74
2022/03/12 18:38:09;;;;;;;7.78;6.95;;;;;;;5.13;27.25;100713.91;10432637;28;20056;-75
2022/03/12 18:43:14;;;;;;;44.05;25.38;;;;;;;5.15;27.22;100719.13;10433381;28;20454;-76
2022/03/12 18:48:17;;;;;;;9.18;7.70;;;;;;;4.94;27.71;100713.00;10436170;28;20060;-77
2022/03/12 18:53:21;;;;;;;8.23;7.38;;;;;;;5.20;27.45;100707.84;10447655;28;20045;-75
2022/03/12 18:58:26;;;;;;;8.43;7.35;;;;;;;4.88;28.02;100723.44;10438992;28;20056;-75
2022/03/12 19:03:27;;;;;;;8.73;7.18;;;;;;;4.85;28.40;100719.94;10450674;28;20104;-75
2022/03/12 19:08:32;;;;;;;7.70;6.97;;;;;;;4.75;28.26;100719.91;10426790;28;20072;-76
2022/03/12 19:13:36;;;;;;;8.35;7.05;;;;;;;4.60;28.63;100719.84;10430916;28;20049;-76
2022/03/12 19:18:39;;;;;;;6.65;6.05;;;;;;;4.17;28.60;100718.81;10428117;28;20112;-75
2022/03/12 19:23:42;;;;;;;10.18;6.47;;;;;;;4.45;28.42;100720.69;10426891;28;20418;-75
2022/03/12 19:28:44;;;;;;;8.18;6.55;;;;;;;4.50;28.11;100715.47;10427376;28;20045;-76
2022/03/12 19:33:50;;;;;;;8.85;6.32;;;;;;;4.39;28.42;100717.19;10429024;28;20056;-74
2022/03/12 19:38:52;;;;;;;7.22;6.13;;;;;;;4.24;28.68;100723.19;10431587;28;20503;-75
2022/03/12 19:43:53;;;;;;;8.55;5.70;;;;;;;4.08;28.94;100719.63;10428120;28;20058;-76
2022/03/12 19:48:55;;;;;;;9.73;5.70;;;;;;;4.40;27.97;100722.41;10428672;28;20068;-75
2022/03/12 19:53:57;;;;;;;6.30;4.57;;;;;;;4.18;28.19;100721.41;10441869;28;20045;-75
2022/03/12 19:58:59;;;;;;;6.28;4.95;;;;;;;4.02;28.09;100715.25;10435504;28;20422;-76
2022/03/12 20:04:00;;;;;;;5.25;4.63;;;;;;;4.53;26.73;100725.91;10470119;28;20048;-75
2022/03/12 20:09:03;;;;;;;6.93;4.72;;;;;;;4.46;26.42;100717.19;10470549;28;20045;-76
2022/03/12 20:14:05;;;;;;;7.53;4.70;;;;;;;4.71;26.20;100718.16;10433897;28;20128;-76
2022/03/12 20:19:09;;;;;;;8.52;4.05;;;;;;;4.55;26.66;100719.84;10441660;28;20068;-75
2022/03/12 20:24:13;;;;;;;5.22;3.80;;;;;;;4.72;25.79;100716.44;10436675;28;20061;-74
2022/03/12 20:29:15;;;;;;;10.10;4.28;;;;;;;4.36;26.38;100715.44;10468986;28;20052;-74
2022/03/12 20:34:17;;;;;;;8.20;4.13;;;;;;;4.24;26.98;100716.22;10457695;28;20051;-75
2022/03/12 20:39:19;;;;;;;6.22;4.43;;;;;;;4.32;26.23;100723.22;10460072;28;20067;-75
2022/03/12 20:44:22;;;;;;;4.60;3.65;;;;;;;4.17;26.79;100717.09;10461454;28;20045;-74
2022/03/12 20:49:24;;;;;;;5.18;4.10;;;;;;;4.13;26.81;100727.47;10441347;28;20119;-75
2022/03/12 20:54:26;;;;;;;9.38;4.25;;;;;;;4.26;26.29;100724.06;10475147;28;20042;-75
2022/03/12 20:59:27;;;;;;;8.13;4.50;;;;;;;3.94;26.95;100713.47;10459493;28;20540;-75
2022/03/12 21:04:29;;;;;;;5.47;4.57;;;;;;;4.17;27.50;100704.06;10421655;28;20144;-75
2022/03/12 21:09:31;;;;;;;6.57;4.35;;;;;;;3.84;27.51;100704.75;10422560;28;20099;-76
2022/03/12 21:14:34;;;;;;;6.22;3.97;;;;;;;3.82;27.03;100701.28;10421384;28;20057;-76
2022/03/12 21:19:37;;;;;;;6.95;4.28;;;;;;;4.02;27.23;100711.78;10435675;28;20046;-75
2022/03/12 21:24:39;;;;;;;5.13;4.20;;;;;;;3.77;27.37;100706.44;10404091;28;20414;-75
2022/03/12 21:29:41;;;;;;;5.65;4.97;;;;;;;3.71;27.90;100698.59;10433733;28;20049;-74
2022/03/12 21:34:47;;;;;;;5.55;4.15;;;;;;;3.86;27.44;100687.44;10392811;28;20049;-76
2022/03/12 21:39:49;;;;;;;5.93;5.28;;;;;;;3.83;27.68;100681.34;10392707;28;20038;-75
2022/03/12 21:44:54;;;;;;;5.15;4.20;;;;;;;3.72;27.91;100694.28;10393995;28;20038;-75
2022/03/12 21:49:56;;;;;;;5.43;4.35;;;;;;;3.69;28.30;100696.84;10376985;28;20069;-75
2022/03/12 21:54:58;;;;;;;6.45;4.13;;;;;;;3.56;28.72;100700.22;10393799;28;20042;-75
2022/03/12 22:00:00;;;;;;;4.88;3.80;;;;;;;3.62;28.12;100700.25;10392732;28;20042;-75
2022/03/12 22:05:02;;;;;;;5.75;4.55;;;;;;;3.57;28.10;100699.34;10375043;28;20036;-75
2022/03/12 22:10:08;;;;;;;6.00;4.30;;;;;;;3.49;28.76;100692.34;10378009;28;20046;-75
2022/03/12 22:15:10;;;;;;;5.85;4.50;;;;;;;3.29;28.74;100692.22;10389906;28;20042;-75
2022/03/12 22:20:13;;;;;;;5.15;3.85;;;;;;;3.38;28.79;100683.63;10392731;28;20125;-75
2022/03/12 22:25:16;;;;;;;6.03;4.40;;;;;;;3.41;28.24;100675.88;10391423;28;20088;-74
2022/03/12 22:30:19;;;;;;;5.43;4.13;;;;;;;3.33;28.69;100681.88;10410792;22;20094;-72
2022/03/12 22:35:20;;;;;;;5.78;4.22;;;;;;;3.21;28.93;100675.69;10443727;28;20116;-72
2022/03/12 22:40:30;;;;;;;5.32;4.78;;;;;;;3.16;29.26;100676.53;10459096;28;20053;-72
2022/03/12 22:45:34;;;;;;;6.53;5.50;;;;;;;3.01;29.42;100667.75;10459631;28;20048;-73
2022/03/12 22:50:36;;;;;;;5.57;4.57;;;;;;;2.96;29.17;100660.75;10460799;28;20107;-72
2022/03/12 22:55:40;;;;;;;11.00;4.80;;;;;;;3.03;29.45;100652.16;10459939;28;20052;-72
2022/03/12 23:00:42;;;;;;;5.43;4.13;;;;;;;2.94;29.34;100646.88;10441472;28;20140;-73
2022/03/12 23:11:08;;;;;;;7.95;4.80;;;;;;;2.76;29.81;100651.06;10461905;28;20041;-72
2022/03/12 23:16:10;;;;;;;6.65;4.30;;;;;;;2.56;30.18;100647.38;10461091;28;20044;-72
2022/03/12 23:21:13;;;;;;;7.72;4.63;;;;;;;2.65;29.95;100651.78;10461562;28;20552;-72
2022/03/12 23:26:15;;;;;;;5.72;4.15;;;;;;;2.56;30.24;100639.59;10462671;28;20049;-71
2022/03/12 23:31:16;;;;;;;5.28;4.43;;;;;;;2.41;30.37;100636.84;10474841;28;20102;-72
2022/03/12 23:36:18;;;;;;;6.85;4.25;;;;;;;2.38;30.21;100637.66;10475109;28;20067;-73